Time;durP1;ratioP1;P1;durP2;ratioP2;P2;SDS_P1;SDS_P2;PMS_P1;PMS_P2;Temp;Humidity;BMP_temperature;BMP_pressure;BME280_temperature;BME280_humidity;BME280_pressure;Samples;Min_cycle;Max_cycle;Signal;HPM_P1;HPM_P2
2022/06/07 07:36:08;;;;;;;4.05;1.25;;;15.10;99.90;;;;;;5103376;27;1294565;-57
2022/06/07 07:38:36;;;;;;;3.97;1.38;;;15.00;99.90;;;;;;5123688;28;20053;-52
2022/06/07 07:41:04;;;;;;;3.67;1.20;;;15.00;99.90;;;;;;5119815;28;20131;-52
2022/06/07 07:43:31;;;;;;;4.03;1.08;;;15.10;99.90;;;;;;5122713;27;20047;-54
2022/06/07 07:45:59;;;;;;;5.03;1.08;;;15.20;99.90;;;;;;5119317;28;20093;-55
2022/06/07 07:48:28;;;;;;;3.47;1.08;;;15.20;99.90;;;;;;5121241;28;20406;-53
2022/06/07 07:50:55;;;;;;;3.17;1.10;;;15.40;99.90;;;;;;5112736;28;20032;-52
2022/06/07 07:53:22;;;;;;;3.03;1.23;;;15.40;99.90;;;;;;5120588;28;20046;-51
2022/06/07 07:55:50;;;;;;;4.18;1.48;;;15.50;99.90;;;;;;5128872;28;20126;-54
2022/06/07 07:58:20;;;;;;;2.70;1.00;;;15.60;99.90;;;;;;5113147;28;20046;-52
2022/06/07 08:00:47;;;;;;;3.53;1.20;;;15.70;99.90;;;;;;5104416;28;20062;-55
2022/06/07 08:03:14;;;;;;;4.82;1.55;;;15.80;99.90;;;;;;5108079;28;20032;-53
2022/06/07 08:05:46;;;;;;;5.05;1.40;;;15.90;99.90;;;;;;5105044;28;20410;-53
2022/06/07 08:08:13;;;;;;;3.25;1.20;;;15.90;99.90;;;;;;5116121;28;20059;-54
2022/06/07 08:10:40;;;;;;;4.43;0.95;;;16.00;99.90;;;;;;5122443;28;20043;-49
2022/06/07 08:13:07;;;;;;;3.90;1.30;;;16.00;99.90;;;;;;5115842;27;20046;-54
2022/06/07 08:15:34;;;;;;;4.13;1.10;;;16.00;99.90;;;;;;5123897;27;20043;-55
2022/06/07 08:18:04;;;;;;;3.42;1.13;;;16.10;99.90;;;;;;5109196;28;20044;-50
2022/06/07 08:20:31;;;;;;;4.40;1.20;;;16.20;99.90;;;;;;5104326;28;20044;-51
2022/06/07 08:22:58;;;;;;;2.88;0.98;;;16.30;99.90;;;;;;5116594;28;20452;-51
2022/06/07 08:25:25;;;;;;;3.05;1.10;;;16.30;99.90;;;;;;5128875;28;20401;-55
2022/06/07 08:27:52;;;;;;;3.22;1.08;;;16.40;99.90;;;;;;5122831;28;20444;-50
2022/06/07 08:30:20;;;;;;;3.95;1.23;;;16.40;99.90;;;;;;5103544;28;20051;-55
2022/06/07 08:32:47;;;;;;;3.58;0.80;;;16.40;99.90;;;;;;5103048;28;20468;-53
2022/06/07 08:37:59;;;;;;;2.95;1.00;;;16.50;99.90;;;;;;5116426;28;20405;-53
2022/06/07 08:40:26;;;;;;;2.92;0.93;;;16.70;99.90;;;;;;5121347;28;20105;-55
2022/06/07 08:42:53;;;;;;;2.85;1.17;;;16.80;99.20;;;;;;5120476;27;20040;-54
2022/06/07 08:45:20;;;;;;;3.28;0.98;;;16.90;98.80;;;;;;5113371;27;20040;-53
2022/06/07 08:47:46;;;;;;;2.33;0.80;;;17.00;97.90;;;;;;5097379;28;20386;-53
2022/06/07 08:50:13;;;;;;;4.20;1.08;;;17.10;99.40;;;;;;5096184;28;20044;-54
2022/06/07 08:52:40;;;;;;;2.70;0.90;;;17.30;98.90;;;;;;5096112;28;20040;-54
2022/06/07 08:55:06;;;;;;;3.15;1.05;;;17.50;98.60;;;;;;5110919;28;20111;-50
2022/06/07 08:57:35;;;;;;;3.88;1.00;;;17.60;98.40;;;;;;5115680;28;20036;-56
2022/06/07 09:00:02;;;;;;;3.20;0.98;;;17.70;98.10;;;;;;5097055;27;20044;-53
2022/06/07 09:02:30;;;;;;;3.05;1.10;;;17.70;97.60;;;;;;5102885;28;20032;-53
2022/06/07 09:04:58;;;;;;;6.15;1.10;;;17.80;97.50;;;;;;5115263;27;20039;-53
2022/06/07 09:07:25;;;;;;;5.32;1.45;;;17.80;97.50;;;;;;5102136;28;20049;-56
2022/06/07 09:12:39;;;;;;;;;;;17.90;97.70;;;;;;5113297;28;20067;-54
2022/06/07 09:15:09;;;;;;;3.05;1.13;;;18.00;97.00;;;;;;5094758;28;19920;-52
2022/06/07 09:17:35;;;;;;;3.30;1.08;;;18.10;97.40;;;;;;5095301;28;20066;-52
2022/06/07 09:20:02;;;;;;;2.15;0.88;;;18.20;97.90;;;;;;5099063;28;20036;-48
2022/06/07 09:22:29;;;;;;;3.35;0.93;;;18.20;97.90;;;;;;5099808;28;20036;-54
2022/06/07 09:24:56;;;;;;;2.63;0.98;;;18.20;97.50;;;;;;5091899;27;20082;-54
2022/06/07 09:27:23;;;;;;;3.72;1.17;;;18.20;97.60;;;;;;5092136;28;20058;-51
2022/06/07 09:29:49;;;;;;;4.07;1.02;;;18.30;97.50;;;;;;5098974;28;20032;-57
2022/06/07 09:32:16;;;;;;;4.35;1.10;;;18.30;97.80;;;;;;5087919;28;20027;-52
2022/06/07 09:34:43;;;;;;;4.95;1.17;;;18.40;97.30;;;;;;5100349;28;20462;-54
2022/06/07 09:37:10;;;;;;;3.60;0.90;;;18.40;96.90;;;;;;5099897;28;20056;-51
2022/06/07 09:39:36;;;;;;;4.13;1.20;;;18.50;97.20;;;;;;5094685;28;20091;-51
2022/06/07 09:42:03;;;;;;;3.45;1.13;;;18.50;96.70;;;;;;5095513;28;20036;-52
2022/06/07 09:44:30;;;;;;;2.60;1.13;;;18.60;97.10;;;;;;5105095;28;20486;-55
2022/06/07 09:46:57;;;;;;;4.30;1.00;;;18.60;97.00;;;;;;5113378;28;20398;-53
2022/06/07 09:49:24;;;;;;;4.35;1.20;;;18.60;96.50;;;;;;5096645;28;20040;-51
2022/06/07 09:51:50;;;;;;;6.15;1.25;;;18.70;97.00;;;;;;5096365;28;20084;-51
2022/06/07 09:54:17;;;;;;;4.40;1.55;;;18.70;97.40;;;;;;5094506;28;20044;-53
2022/06/07 09:56:46;;;;;;;4.05;1.10;;;18.80;96.80;;;;;;5097163;28;20036;-53
2022/06/07 09:59:13;;;;;;;3.55;0.95;;;18.90;97.00;;;;;;5105906;28;20046;-56
2022/06/07 10:01:40;;;;;;;3.97;1.20;;;19.00;97.10;;;;;;5114476;28;20051;-56
2022/06/07 10:04:06;;;;;;;2.83;0.80;;;19.10;96.60;;;;;;5098422;28;20131;-50
2022/06/07 10:06:33;;;;;;;3.20;1.00;;;19.20;97.10;;;;;;5094079;28;20040;-56
2022/06/07 10:09:00;;;;;;;3.53;0.95;;;19.30;96.70;;;;;;5103416;28;20389;-50
2022/06/07 10:11:27;;;;;;;2.70;1.00;;;19.30;96.60;;;;;;5107492;28;20032;-50
2022/06/07 10:13:53;;;;;;;3.22;1.08;;;19.40;96.20;;;;;;5099261;28;20044;-57
2022/06/07 10:16:20;;;;;;;3.17;1.10;;;19.30;96.20;;;;;;5093614;28;20051;-49
2022/06/07 10:18:47;;;;;;;2.97;0.80;;;19.20;96.20;;;;;;5090985;28;20035;-56
2022/06/07 10:21:14;;;;;;;5.60;1.10;;;19.20;96.60;;;;;;5092170;28;20043;-50
2022/06/07 10:23:41;;;;;;;3.95;1.40;;;19.30;97.10;;;;;;5090666;28;20549;-53
2022/06/07 10:26:08;;;;;;;3.65;1.20;;;19.30;97.70;;;;;;5089261;28;20043;-54
2022/06/07 10:28:35;;;;;;;2.50;1.08;;;19.50;97.90;;;;;;5087900;28;20089;-54
2022/06/07 10:31:04;;;;;;;3.47;1.50;;;19.60;97.30;;;;;;5096929;28;20051;-53
2022/06/07 10:33:31;;;;;;;3.95;1.52;;;19.70;97.50;;;;;;5108134;28;20040;-56
2022/06/07 10:35:58;;;;;;;4.25;1.45;;;19.90;97.50;;;;;;5093544;28;20048;-55
2022/06/07 10:38:25;;;;;;;2.70;1.30;;;20.00;96.50;;;;;;5098394;28;20191;-53
2022/06/07 10:40:51;;;;;;;3.47;1.30;;;20.10;96.60;;;;;;5095483;28;20036;-54
2022/06/07 10:43:18;;;;;;;3.67;1.25;;;20.10;96.40;;;;;;5083877;28;20067;-57
2022/06/07 10:45:45;;;;;;;3.95;1.30;;;20.20;96.30;;;;;;5096299;28;20043;-54
2022/06/07 10:48:12;;;;;;;3.95;1.02;;;20.30;96.20;;;;;;5101904;28;20487;-54
2022/06/07 10:50:39;;;;;;;2.75;1.02;;;20.30;96.10;;;;;;5093221;28;20047;-57
2022/06/07 10:53:06;;;;;;;3.38;0.90;;;20.30;95.40;;;;;;5105502;28;20098;-48
2022/06/07 10:55:32;;;;;;;3.15;1.00;;;20.20;95.80;;;;;;5093415;28;20040;-54
2022/06/07 10:58:00;;;;;;;3.15;1.35;;;20.20;96.20;;;;;;5093782;28;20036;-54
2022/06/07 11:00:29;;;;;;;6.28;1.70;;;20.20;96.90;;;;;;5093031;28;20040;-54
2022/06/07 11:02:59;;;;;;;3.67;1.48;;;20.30;97.10;;;;;;5092729;28;20036;-56
2022/06/07 11:10:57;;;;;;;3.75;1.25;;;20.30;97.40;;;;;;5089879;28;20115;-56
2022/06/07 11:13:24;;;;;;;2.60;1.55;;;20.50;97.70;;;;;;5099481;28;20068;-56
2022/06/07 11:15:51;;;;;;;4.68;1.30;;;20.60;96.40;;;;;;5106883;28;20032;-52
2022/06/07 11:18:18;;;;;;;2.80;1.10;;;20.70;96.40;;;;;;5100424;28;20435;-53
2022/06/07 11:20:54;;;;;;;3.28;1.40;;;20.60;96.50;;;;;;5107002;28;20359;-52
2022/06/07 11:23:21;;;;;;;2.25;1.13;;;20.50;96.90;;;;;;5111414;28;20482;-56
2022/06/07 11:25:48;;;;;;;2.95;0.80;;;20.50;97.00;;;;;;5093694;28;20040;-53
2022/06/07 11:28:15;;;;;;;2.38;0.93;;;20.50;96.40;;;;;;5092365;28;20432;-51
2022/06/07 11:30:42;;;;;;;2.60;0.90;;;20.50;96.80;;;;;;5092965;28;20044;-49
2022/06/07 11:33:09;;;;;;;2.63;0.98;;;20.40;97.20;;;;;;5093707;28;20028;-51
2022/06/07 11:35:35;;;;;;;3.75;1.10;;;20.50;97.70;;;;;;5093258;28;20052;-49
2022/06/07 11:38:02;;;;;;;3.03;1.30;;;20.50;97.70;;;;;;5093507;28;20040;-54
2022/06/07 11:40:29;;;;;;;3.70;1.17;;;20.60;97.90;;;;;;5092379;28;20044;-53
2022/06/07 11:42:56;;;;;;;3.28;1.25;;;20.80;98.00;;;;;;5112973;28;20036;-53
2022/06/07 11:45:23;;;;;;;3.58;1.10;;;20.90;97.60;;;;;;5086216;28;20044;-54
2022/06/07 11:47:50;;;;;;;2.20;1.00;;;21.00;97.00;;;;;;5113249;28;20395;-55
2022/06/07 11:50:17;;;;;;;1.67;0.80;;;21.10;96.30;;;;;;5102074;28;20043;-56
2022/06/07 11:52:44;;;;;;;2.65;0.90;;;21.10;96.30;;;;;;5099459;28;20555;-53
2022/06/07 11:55:10;;;;;;;3.20;1.30;;;21.10;96.20;;;;;;5109409;28;20055;-52
2022/06/07 11:57:51;;;;;;;2.95;1.10;;;21.10;96.70;;;;;;5093574;28;20462;-52
2022/06/07 12:00:17;;;;;;;2.78;1.00;;;21.20;96.50;;;;;;5092891;28;20429;-52
2022/06/07 12:02:44;;;;;;;2.40;1.00;;;21.20;96.10;;;;;;5093371;28;20048;-55
2022/06/07 12:05:11;;;;;;;2.45;0.98;;;21.20;96.20;;;;;;5091603;28;20131;-55
2022/06/07 12:07:38;;;;;;;4.55;1.00;;;21.20;96.10;;;;;;5112744;28;20035;-48
2022/06/07 12:10:04;;;;;;;3.05;1.00;;;21.30;96.20;;;;;;5113024;28;20035;-53
2022/06/07 12:12:32;;;;;;;2.42;1.10;;;21.30;96.80;;;;;;5086170;28;20457;-55
2022/06/07 12:14:58;;;;;;;2.45;1.10;;;21.30;96.00;;;;;;5112882;28;20491;-55
2022/06/07 12:17:25;;;;;;;1.90;1.00;;;21.10;96.90;;;;;;5112879;28;20036;-52
2022/06/07 12:19:52;;;;;;;1.95;1.20;;;20.90;97.20;;;;;;5106686;28;20036;-51
2022/06/07 12:22:19;;;;;;;2.35;1.30;;;20.70;97.60;;;;;;5095160;28;20119;-52
2022/06/07 12:24:45;;;;;;;2.13;1.23;;;20.60;99.50;;;;;;5097025;28;20040;-53
2022/06/07 12:27:12;;;;;;;2.50;1.10;;;20.40;99.90;;;;;;5097982;28;20043;-51
2022/06/07 12:29:39;;;;;;;3.63;1.30;;;20.10;99.90;;;;;;5115686;28;20451;-52
2022/06/07 12:32:06;;;;;;;4.18;1.52;;;19.90;99.90;;;;;;5116365;28;20035;-55
2022/06/07 12:34:33;;;;;;;2.63;1.40;;;19.70;99.90;;;;;;5116435;28;20039;-57
2022/06/07 12:36:59;;;;;;;3.40;1.40;;;19.60;99.90;;;;;;5097468;28;20056;-51
2022/06/07 12:39:26;;;;;;;2.50;1.38;;;19.60;99.90;;;;;;5096858;28;20449;-55
2022/06/07 12:41:53;;;;;;;3.97;1.00;;;19.50;99.90;;;;;;5096139;28;20046;-57
2022/06/07 12:44:20;;;;;;;1.98;1.00;;;19.30;99.90;;;;;;5096462;28;20036;-52
2022/06/07 12:46:47;;;;;;;2.58;1.02;;;19.10;99.90;;;;;;5096368;28;20040;-57
2022/06/07 12:49:14;;;;;;;1.75;1.10;;;19.00;99.90;;;;;;5096440;28;20040;-51
2022/06/07 12:51:41;;;;;;;3.33;1.48;;;19.00;99.90;;;;;;5096398;28;20036;-54
2022/06/07 12:54:09;;;;;;;1.95;1.30;;;18.90;99.90;;;;;;5096559;28;20401;-49
2022/06/07 12:56:36;;;;;;;5.60;1.70;;;19.00;99.90;;;;;;5096480;28;20040;-49
2022/06/07 12:59:03;;;;;;;6.55;1.70;;;19.00;99.90;;;;;;5096311;28;20044;-55
2022/06/07 13:01:30;;;;;;;3.25;1.48;;;19.10;99.90;;;;;;5095774;28;20047;-54
2022/06/07 13:03:56;;;;;;;2.85;1.38;;;19.20;99.90;;;;;;5096054;28;20431;-51
2022/06/07 13:06:24;;;;;;;3.13;1.40;;;19.20;99.90;;;;;;5094231;28;20039;-54
2022/06/07 13:08:51;;;;;;;2.67;1.45;;;19.10;99.90;;;;;;5096223;28;20044;-51
2022/06/07 13:11:17;;;;;;;2.30;1.42;;;19.20;99.90;;;;;;5090637;28;20052;-51
2022/06/07 13:13:47;;;;;;;2.60;1.20;;;19.30;99.90;;;;;;5095996;28;20040;-57
2022/06/07 13:16:14;;;;;;;2.05;1.13;;;19.30;99.90;;;;;;5094345;28;20060;-54
2022/06/07 13:18:41;;;;;;;2.20;1.05;;;19.30;99.90;;;;;;5096015;28;20460;-50
2022/06/07 13:21:08;;;;;;;1.60;1.00;;;19.30;99.90;;;;;;5095952;28;21047;-51
2022/06/07 13:23:35;;;;;;;2.22;1.00;;;19.20;99.90;;;;;;5111551;28;20066;-63
2022/06/07 13:26:02;;;;;;;2.40;0.90;;;19.30;99.90;;;;;;5115360;28;20051;-53
2022/06/07 13:28:29;;;;;;;1.63;0.90;;;19.20;99.90;;;;;;5115535;28;20078;-52
2022/06/07 13:30:56;;;;;;;2.60;0.95;;;19.20;99.90;;;;;;5098763;28;20040;-51
2022/06/07 13:33:23;;;;;;;3.08;1.00;;;19.30;99.90;;;;;;5094761;28;20119;-52
2022/06/07 13:35:54;;;;;;;2.53;1.20;;;19.30;99.90;;;;;;5095549;28;20048;-56
2022/06/07 13:38:21;;;;;;;3.95;1.02;;;19.40;99.90;;;;;;5095397;28;20044;-56
2022/06/07 13:40:48;;;;;;;1.95;0.95;;;19.40;99.90;;;;;;5095455;28;20040;-53
2022/06/07 13:43:15;;;;;;;3.67;0.90;;;19.40;99.90;;;;;;5095265;28;20051;-54
2022/06/07 13:45:42;;;;;;;1.75;0.88;;;19.40;99.90;;;;;;5095073;28;20032;-53
2022/06/07 13:48:09;;;;;;;2.97;0.40;;;19.30;99.90;;;;;;5095244;28;20471;-52
2022/06/07 13:53:21;;;;;;;;;;;19.20;99.90;;;;;;5095615;28;20119;-53
2022/06/07 13:55:50;;;;;;;1.77;0.82;;;19.10;99.90;;;;;;5094641;28;19928;-52
2022/06/07 13:58:16;;;;;;;1.98;0.65;;;19.10;99.90;;;;;;5095138;28;20050;-57
2022/06/07 14:00:48;;;;;;;1.58;0.60;;;19.10;99.90;;;;;;5105878;28;20056;-54
2022/06/07 14:03:15;;;;;;;3.33;0.80;;;19.00;99.90;;;;;;5114640;28;20035;-54
2022/06/07 14:05:41;;;;;;;1.60;0.60;;;19.00;99.90;;;;;;5113221;28;20039;-55
2022/06/07 14:08:08;;;;;;;1.10;0.40;;;19.00;99.90;;;;;;5114623;28;20035;-55
2022/06/07 14:10:35;;;;;;;0.90;0.50;;;19.00;99.90;;;;;;5091139;28;20123;-57
2022/06/07 14:13:05;;;;;;;1.30;0.60;;;19.00;99.90;;;;;;5094670;28;20040;-54
2022/06/07 14:15:32;;;;;;;1.30;0.50;;;19.00;99.90;;;;;;5094769;28;20036;-56
2022/06/07 14:17:59;;;;;;;0.70;0.40;;;19.00;99.90;;;;;;5094959;28;20047;-55
2022/06/07 14:20:28;;;;;;;1.85;0.60;;;19.00;99.90;;;;;;5094698;28;20398;-51
2022/06/07 14:22:54;;;;;;;1.38;0.50;;;19.00;99.90;;;;;;5094148;28;20044;-51
2022/06/07 14:25:23;;;;;;;1.20;0.30;;;18.90;99.90;;;;;;5094582;28;20032;-55
2022/06/07 14:27:49;;;;;;;1.58;0.50;;;18.90;99.90;;;;;;5094404;28;20126;-50
2022/06/07 14:30:16;;;;;;;4.70;1.30;;;18.90;99.90;;;;;;5094781;28;20036;-47
2022/06/07 14:32:43;;;;;;;1.60;1.00;;;18.90;99.90;;;;;;5093231;28;20028;-54
2022/06/07 14:35:10;;;;;;;1.75;1.00;;;18.90;99.90;;;;;;5093314;28;20044;-53
2022/06/07 14:37:38;;;;;;;2.95;0.98;;;18.90;99.90;;;;;;5093494;28;20069;-53
2022/06/07 14:40:04;;;;;;;3.50;1.23;;;19.00;99.90;;;;;;5093308;28;20050;-59
2022/06/07 14:42:31;;;;;;;2.90;1.25;;;19.20;99.90;;;;;;5094046;28;20035;-56
2022/06/07 14:44:58;;;;;;;2.33;1.20;;;19.30;99.90;;;;;;5093881;28;20089;-57
2022/06/07 14:47:25;;;;;;;6.18;2.10;;;19.30;99.90;;;;;;5093632;28;20562;-57
2022/06/07 14:49:52;;;;;;;3.85;2.50;;;19.20;99.90;;;;;;5094455;28;20149;-52
2022/06/07 14:52:18;;;;;;;4.65;2.30;;;19.20;99.90;;;;;;5093111;28;20054;-53
2022/06/07 14:54:46;;;;;;;3.47;1.90;;;19.20;99.90;;;;;;5092919;28;20044;-53
2022/06/07 14:57:12;;;;;;;3.97;2.42;;;19.10;99.90;;;;;;5092457;28;20044;-55
2022/06/07 14:59:39;;;;;;;4.43;1.85;;;19.20;99.90;;;;;;5093428;28;20097;-55
2022/06/07 15:02:06;;;;;;;5.30;2.10;;;19.20;99.90;;;;;;5094148;28;20115;-54
2022/06/07 15:04:33;;;;;;;3.83;2.38;;;19.30;99.90;;;;;;5093547;28;20097;-56
2022/06/07 15:07:00;;;;;;;5.75;2.50;;;19.40;99.90;;;;;;5091358;28;20048;-55
2022/06/07 15:09:26;;;;;;;5.00;2.80;;;19.70;99.90;;;;;;5093834;28;20532;-57
2022/06/07 15:11:54;;;;;;;5.18;2.65;;;20.00;99.90;;;;;;5113553;28;20096;-52
2022/06/07 15:14:20;;;;;;;4.20;2.00;;;20.30;99.90;;;;;;5113334;28;20104;-50
2022/06/07 15:16:47;;;;;;;7.38;1.90;;;20.40;99.90;;;;;;5113658;28;20057;-55
2022/06/07 15:19:14;;;;;;;4.75;1.70;;;20.50;99.90;;;;;;5113137;28;20039;-52
2022/06/07 15:21:41;;;;;;;5.95;2.28;;;20.40;99.90;;;;;;5113094;28;20122;-54
2022/06/07 15:24:07;;;;;;;5.20;2.10;;;20.50;99.90;;;;;;5113172;28;20036;-53
2022/06/07 15:26:34;;;;;;;6.20;2.30;;;20.50;99.90;;;;;;5111920;28;20062;-53
2022/06/07 15:29:04;;;;;;;4.63;1.77;;;20.40;99.90;;;;;;5113298;28;20559;-55
2022/06/07 15:31:30;;;;;;;4.20;1.83;;;20.50;99.90;;;;;;5113471;28;20050;-54
2022/06/07 15:33:59;;;;;;;4.10;1.75;;;20.40;99.90;;;;;;5112854;28;20032;-56
2022/06/07 15:36:26;;;;;;;5.18;2.00;;;20.30;99.90;;;;;;5093326;28;20062;-52
2022/06/07 15:38:52;;;;;;;4.00;1.65;;;20.30;99.90;;;;;;5093326;28;20093;-54
2022/06/07 15:44:05;;;;;;;4.78;1.80;;;20.50;99.90;;;;;;5112964;28;20048;-55
2022/06/07 15:46:32;;;;;;;3.97;1.60;;;21.00;99.90;;;;;;5112741;28;20040;-54
2022/06/07 15:49:00;;;;;;;8.77;2.08;;;21.70;99.90;;;;;;5094446;28;20097;-53
2022/06/07 15:51:27;;;;;;;4.70;2.20;;;22.20;99.90;;;;;;5093275;28;20088;-54
2022/06/07 15:53:54;;;;;;;5.65;2.22;;;22.50;99.90;;;;;;5093075;28;20040;-56
2022/06/07 15:56:21;;;;;;;5.13;1.73;;;22.90;99.90;;;;;;5094530;28;20073;-53
2022/06/07 15:59:03;;;;;;;5.35;1.92;;;23.20;99.90;;;;;;5097522;28;20044;-54
2022/06/07 16:01:30;;;;;;;4.82;2.00;;;23.20;99.90;;;;;;5097382;28;20050;-50
2022/06/07 16:03:57;;;;;;;7.75;2.20;;;22.70;99.90;;;;;;5097176;28;20036;-54
2022/06/07 16:06:24;;;;;;;5.70;1.90;;;22.30;99.80;;;;;;5097044;28;20483;-54
2022/06/07 16:08:52;;;;;;;6.95;2.35;;;22.00;99.90;;;;;;5097106;28;20040;-52
2022/06/07 16:11:20;;;;;;;5.68;1.95;;;22.10;99.90;;;;;;5097239;28;20036;-53
2022/06/07 16:13:47;;;;;;;7.65;1.83;;;22.30;99.90;;;;;;5097071;28;20487;-52
2022/06/07 16:16:15;;;;;;;8.00;2.45;;;22.50;99.90;;;;;;5097214;28;20042;-55
2022/06/07 16:18:42;;;;;;;7.30;1.77;;;22.70;99.90;;;;;;5097070;28;20032;-52
2022/06/07 16:21:09;;;;;;;6.70;2.05;;;22.50;99.70;;;;;;5102143;28;20042;-54
2022/06/07 16:23:36;;;;;;;6.45;2.10;;;22.40;99.90;;;;;;5116618;28;20047;-52
2022/06/07 16:26:02;;;;;;;7.15;2.17;;;22.30;99.90;;;;;;5104463;28;20048;-55
2022/06/07 16:34:00;;;;;;;5.63;2.10;;;21.30;99.90;;;;;;5106091;28;19923;-56
2022/06/07 16:36:29;;;;;;;8.25;2.30;;;21.00;99.90;;;;;;5107244;28;20055;-54
2022/06/07 16:38:56;;;;;;;6.57;1.83;;;20.80;99.90;;;;;;5112974;28;20124;-51
2022/06/07 16:41:23;;;;;;;5.72;1.85;;;20.70;99.90;;;;;;5107139;28;20088;-58
2022/06/07 16:44:02;;;;;;;6.95;1.88;;;20.60;99.90;;;;;;5096955;28;20127;-54
2022/06/07 16:46:29;;;;;;;4.53;1.75;;;20.60;99.90;;;;;;5114119;28;20131;-55
2022/06/07 16:48:56;;;;;;;4.85;1.90;;;20.50;99.90;;;;;;5116037;28;20044;-54
2022/06/07 16:51:25;;;;;;;4.07;1.30;;;20.70;99.90;;;;;;5116748;28;20043;-58
2022/06/07 16:53:56;;;;;;;4.30;1.20;;;20.90;99.90;;;;;;5115585;28;20058;-54
2022/06/07 16:56:23;;;;;;;3.20;1.20;;;20.90;99.90;;;;;;5114930;28;20044;-53
2022/06/07 16:58:50;;;;;;;2.95;1.35;;;21.20;99.90;;;;;;5116446;28;20078;-55
2022/06/07 17:01:17;;;;;;;3.17;1.35;;;21.80;99.90;;;;;;5116000;28;20042;-55
2022/06/07 17:03:43;;;;;;;2.38;1.17;;;21.90;99.90;;;;;;5111193;28;20086;-60
2022/06/07 17:06:11;;;;;;;2.70;1.25;;;22.40;99.90;;;;;;5096488;28;20123;-54
2022/06/07 17:08:38;;;;;;;2.33;1.23;;;22.50;99.00;;;;;;5094859;28;20406;-56
2022/06/07 17:11:04;;;;;;;2.30;1.40;;;22.60;99.10;;;;;;5095016;28;20116;-56
2022/06/07 17:13:31;;;;;;;2.30;1.10;;;22.50;98.80;;;;;;5095073;28;20032;-56
2022/06/07 17:15:58;;;;;;;5.05;1.95;;;22.10;99.30;;;;;;5095072;28;20391;-55
2022/06/07 17:18:25;;;;;;;2.78;1.73;;;21.80;99.70;;;;;;5094857;28;20119;-58
2022/06/07 17:20:51;;;;;;;2.95;1.58;;;21.60;99.90;;;;;;5094974;28;20097;-54
2022/06/07 17:23:18;;;;;;;3.65;1.50;;;21.40;99.90;;;;;;5095471;28;20040;-55
2022/06/07 17:25:45;;;;;;;3.58;1.88;;;21.30;99.90;;;;;;5096184;28;20043;-54
2022/06/07 17:28:12;;;;;;;3.70;1.90;;;21.20;99.90;;;;;;5095937;28;20057;-56
2022/06/07 17:30:38;;;;;;;2.95;1.83;;;21.10;99.90;;;;;;5096103;28;20552;-54
2022/06/07 17:33:05;;;;;;;3.88;2.10;;;21.00;99.90;;;;;;5095711;28;20080;-55
2022/06/07 17:35:32;;;;;;;5.05;2.13;;;20.90;99.90;;;;;;5095422;28;20044;-53
2022/06/07 17:38:00;;;;;;;4.75;2.10;;;20.90;99.90;;;;;;5105944;28;20065;-53
2022/06/07 17:40:29;;;;;;;4.60;1.80;;;20.80;99.90;;;;;;5114180;28;20063;-54
2022/06/07 17:42:55;;;;;;;3.13;1.90;;;20.80;99.90;;;;;;5095551;28;20044;-49
2022/06/07 17:45:22;;;;;;;3.17;1.90;;;20.70;99.90;;;;;;5095567;28;20059;-52
2022/06/07 17:47:49;;;;;;;6.00;2.25;;;20.70;99.90;;;;;;5095332;28;20032;-55
2022/06/07 17:50:16;;;;;;;4.60;2.10;;;20.70;99.90;;;;;;5112372;28;20039;-52
2022/06/07 17:52:43;;;;;;;3.95;1.65;;;21.00;99.90;;;;;;5114941;28;20049;-56
2022/06/07 17:55:10;;;;;;;5.15;1.70;;;21.30;99.90;;;;;;5114872;28;20044;-54
2022/06/07 17:57:36;;;;;;;3.92;1.73;;;21.60;99.90;;;;;;5114989;28;20039;-52
2022/06/07 18:00:03;;;;;;;3.88;1.90;;;21.60;99.70;;;;;;5114754;28;20096;-54
2022/06/07 18:02:37;;;;;;;2.63;1.70;;;21.40;99.90;;;;;;5114752;28;20051;-53
2022/06/07 18:05:05;;;;;;;4.30;1.60;;;21.10;99.90;;;;;;5114753;28;20048;-56
2022/06/07 18:07:31;;;;;;;3.00;1.70;;;20.90;99.90;;;;;;5109722;28;20036;-55
2022/06/07 18:09:58;;;;;;;3.38;2.22;;;20.60;99.90;;;;;;5095265;28;20044;-54
2022/06/07 18:12:30;;;;;;;4.38;2.13;;;20.30;99.90;;;;;;5094812;28;20125;-52
2022/06/07 18:14:57;;;;;;;4.50;1.98;;;20.20;99.90;;;;;;5093717;28;20044;-51
2022/06/07 18:17:24;;;;;;;3.83;2.00;;;20.10;99.90;;;;;;5095090;28;20047;-56
2022/06/07 18:19:50;;;;;;;3.75;1.67;;;19.90;99.90;;;;;;5094353;28;20048;-57
2022/06/07 18:22:37;;;;;;;5.22;1.45;;;19.80;99.90;;;;;;5101718;28;20044;-54
2022/06/07 18:25:04;;;;;;;5.57;1.80;;;19.70;99.90;;;;;;5114107;28;20395;-55
2022/06/07 18:27:33;;;;;;;6.35;2.10;;;19.60;99.90;;;;;;5114247;28;20475;-51
2022/06/07 18:30:00;;;;;;;4.93;1.60;;;19.60;99.90;;;;;;5114264;28;20453;-56
2022/06/07 18:32:27;;;;;;;5.20;1.98;;;19.50;99.90;;;;;;5114242;28;20040;-55
2022/06/07 18:34:55;;;;;;;4.05;1.75;;;19.50;99.90;;;;;;5114250;28;20135;-53
2022/06/07 18:37:21;;;;;;;5.18;1.90;;;19.60;99.90;;;;;;5113960;28;20043;-53
2022/06/07 18:39:48;;;;;;;5.40;1.95;;;19.50;99.90;;;;;;5114269;28;20047;-53
2022/06/07 18:42:15;;;;;;;4.50;1.60;;;19.30;99.90;;;;;;5098792;27;20133;-56
2022/06/07 18:44:43;;;;;;;5.45;2.20;;;19.30;99.90;;;;;;5094426;28;20048;-56
2022/06/07 18:47:11;;;;;;;4.05;1.70;;;19.20;99.90;;;;;;5094545;28;20036;-56
2022/06/07 18:49:38;;;;;;;5.82;1.80;;;19.30;99.90;;;;;;5094376;28;20040;-55
2022/06/07 18:52:05;;;;;;;6.28;2.13;;;19.30;99.90;;;;;;5094453;28;20044;-58
2022/06/07 18:54:33;;;;;;;4.70;1.75;;;19.30;99.90;;;;;;5094370;28;20044;-54
2022/06/07 18:57:00;;;;;;;5.78;1.77;;;19.20;99.90;;;;;;5094221;28;20552;-57
2022/06/07 18:59:27;;;;;;;7.40;2.13;;;19.20;99.90;;;;;;5094290;28;20495;-52
2022/06/07 19:01:54;;;;;;;8.57;2.00;;;19.10;99.90;;;;;;5094414;28;20063;-53
2022/06/07 19:04:21;;;;;;;8.68;2.30;;;19.00;99.90;;;;;;5101015;28;20105;-52
2022/06/07 19:06:48;;;;;;;5.72;2.25;;;18.90;99.90;;;;;;5094083;28;20055;-56
2022/06/07 19:09:15;;;;;;;5.78;2.17;;;18.80;99.90;;;;;;5094322;28;20044;-55
2022/06/07 19:11:44;;;;;;;8.75;2.10;;;18.80;99.90;;;;;;5094606;28;20032;-57
2022/06/07 19:14:11;;;;;;;5.22;1.90;;;18.70;99.90;;;;;;5094155;28;20032;-56
2022/06/07 19:16:38;;;;;;;6.63;1.90;;;18.70;99.90;;;;;;5094222;28;20549;-55
2022/06/07 19:19:04;;;;;;;7.93;2.00;;;18.60;99.90;;;;;;5093995;28;20074;-53
2022/06/07 19:21:33;;;;;;;4.25;1.67;;;18.60;99.90;;;;;;5093771;28;20036;-55
2022/06/07 19:24:00;;;;;;;7.53;1.88;;;18.50;99.90;;;;;;5093977;28;20040;-53
2022/06/07 19:26:27;;;;;;;4.88;1.60;;;18.40;99.90;;;;;;5093791;28;20185;-56
2022/06/07 19:28:54;;;;;;;5.50;1.80;;;18.30;99.90;;;;;;5093489;28;20072;-55
2022/06/07 19:31:21;;;;;;;5.30;1.42;;;18.20;99.90;;;;;;5093657;28;20040;-54
2022/06/07 19:33:47;;;;;;;4.40;1.60;;;18.20;99.90;;;;;;5087306;28;20384;-55
2022/06/07 19:36:15;;;;;;;6.13;1.65;;;18.10;99.90;;;;;;5087172;28;20032;-55
2022/06/07 19:38:42;;;;;;;6.47;1.65;;;18.10;99.90;;;;;;5086633;28;20044;-52
2022/06/07 19:41:08;;;;;;;3.17;1.60;;;18.00;99.90;;;;;;5085884;28;20548;-55
2022/06/07 19:43:35;;;;;;;5.45;1.55;;;18.00;99.90;;;;;;5086909;28;20048;-53
2022/06/07 19:46:02;;;;;;;4.25;1.17;;;17.90;99.90;;;;;;5113387;28;20134;-56
2022/06/07 19:48:29;;;;;;;3.92;1.30;;;17.90;99.90;;;;;;5113039;28;20063;-55
2022/06/07 19:50:56;;;;;;;3.30;1.30;;;17.80;99.90;;;;;;5113456;28;20475;-56
2022/06/07 19:53:23;;;;;;;4.10;1.45;;;17.80;99.90;;;;;;5113136;28;20039;-57
2022/06/07 19:55:50;;;;;;;4.38;1.35;;;17.70;99.90;;;;;;5113153;28;20123;-56
2022/06/07 19:58:17;;;;;;;6.07;1.60;;;17.60;99.90;;;;;;5113170;28;20050;-54
2022/06/07 20:00:44;;;;;;;3.30;1.60;;;17.60;99.90;;;;;;5113215;28;20046;-54
2022/06/07 20:03:11;;;;;;;4.45;1.40;;;17.50;99.90;;;;;;5113292;28;20077;-52
2022/06/07 20:05:38;;;;;;;3.28;1.23;;;17.40;99.90;;;;;;5100504;28;20036;-56
2022/06/07 20:08:07;;;;;;;3.25;1.40;;;17.40;99.90;;;;;;5093369;28;20098;-58
2022/06/07 20:10:34;;;;;;;4.07;1.80;;;17.30;99.90;;;;;;5093604;28;20040;-49
2022/06/07 20:13:01;;;;;;;3.65;1.20;;;17.30;99.90;;;;;;5093343;28;20032;-54
2022/06/07 20:15:28;;;;;;;4.57;1.58;;;17.30;99.90;;;;;;5092486;28;20044;-55
2022/06/07 20:17:54;;;;;;;2.85;1.42;;;17.20;99.90;;;;;;5093509;28;20044;-52
2022/06/07 20:20:21;;;;;;;3.67;1.45;;;17.20;99.90;;;;;;5093381;28;20044;-59
2022/06/07 20:22:48;;;;;;;2.80;1.23;;;17.20;99.90;;;;;;5093528;28;20089;-57
2022/06/07 20:25:15;;;;;;;3.65;1.35;;;17.20;99.90;;;;;;5093567;28;20119;-53
2022/06/07 20:27:42;;;;;;;4.25;1.50;;;17.10;99.90;;;;;;5093359;28;20391;-53
2022/06/07 20:30:09;;;;;;;3.05;1.58;;;17.00;99.90;;;;;;5093076;28;20040;-57
2022/06/07 20:32:37;;;;;;;6.70;1.45;;;17.00;99.90;;;;;;5093347;28;20129;-52
2022/06/07 20:35:04;;;;;;;3.75;1.52;;;17.00;99.90;;;;;;5112062;28;20043;-51
2022/06/07 20:37:30;;;;;;;3.40;1.45;;;17.00;99.90;;;;;;5110102;28;20054;-55
2022/06/07 20:39:57;;;;;;;4.00;1.30;;;17.00;99.90;;;;;;5091858;28;20044;-55
2022/06/07 20:42:44;;;;;;;3.58;1.45;;;17.00;99.90;;;;;;5094978;28;20040;-54
2022/06/07 20:45:11;;;;;;;5.88;1.90;;;16.90;99.90;;;;;;5096768;28;20075;-52